Seosan Air Base

Jump to: basic info | weather | frequencies | runways | comments

Related pages: nearby airports | nearby navaids | notams | map

Basic information (top)

Codes: RKTP RK6U
Location: lon 36.703999, lat 126.486000, elev 39 ft / 12 m msl
Status: small_airport

Weather (top)

Current conditions for A 511 Airport 30nm (56km) ENE (rec'd 2014/04/23 22:55Z):

RKSG 232255Z 01003KT 1/2SM FG FEW200 11/11 A3018 RMK AO2A SLP224 $

Airport forecast for A 511 Airport 30nm (56km) ENE (rec'd 2013/07/28 20:54Z):

TAF TAF RKSG 272000Z 2720/2902 18009KT 3200 BR OVC070 QNH2964INS 
      BECMG 2722/2723 20009KT 5000 -SHRA SCT015 OVC020 QNH2962INS 
      TEMPO 2800/2806 20010G15KT TSRA BKN015CB 
      BECMG 2805/2806 20009KT 5000 -SHRA BKN015 QNH2958INS TX30/2805Z TN24/2820Z

Frequencies (top)

Verify before use: may be inaccurate or out of date.

APP: 124.6 MHz (HAEMI APP)
ATIS: 130.3 MHz (ATIS)
CLD: 27.58 MHz (CLNC DEL)
DEP: 124.6 MHz (DEP)
GND: 27.58 MHz (GND)
TWR: 126.2 MHz (HAEMI TWR)

Runways (top)

03L/21R: 9,000 x 150 ft (2,743 x 46 m) — paved — lighted

03R/21L: 9,000 x 150 ft (2,743 x 46 m) — paved — lighted

Latest comments (top)

No comments yet for Seosan Air Base

More... (top)

See also NOTAMs and nearby airports and navaids, or visit the Seosan Air Base page at the main OurAirports website..